createdAt,value
2022-09-14T00:00:07.252Z,16.50
2022-09-14T00:02:57.664Z,16.40
2022-09-14T00:05:47.175Z,16.50
2022-09-14T00:08:36.679Z,16.50
2022-09-14T00:11:27.456Z,16.50
2022-09-14T00:14:16.544Z,16.40
2022-09-14T00:17:05.295Z,16.40
2022-09-14T00:19:55.415Z,16.40
2022-09-14T00:22:44.092Z,16.40
2022-09-14T00:25:33.332Z,16.40
2022-09-14T00:28:22.045Z,16.40
2022-09-14T00:31:11.178Z,16.40
2022-09-14T00:34:00.069Z,16.30
2022-09-14T00:36:52.500Z,16.30
2022-09-14T00:39:41.463Z,16.40
2022-09-14T00:42:30.194Z,16.30
2022-09-14T00:45:20.749Z,16.40
2022-09-14T00:48:09.668Z,16.40
2022-09-14T00:50:58.657Z,16.40
2022-09-14T00:53:49.377Z,16.50
2022-09-14T00:56:38.501Z,16.50
2022-09-14T00:59:31.118Z,16.50
2022-09-14T01:02:21.575Z,16.40
2022-09-14T01:05:11.789Z,16.40
2022-09-14T01:08:17.690Z,16.40
2022-09-14T01:11:19.555Z,16.40
2022-09-14T01:14:15.947Z,16.30
2022-09-14T01:17:13.685Z,16.30
2022-09-14T01:20:16.941Z,16.30
2022-09-14T01:23:15.697Z,16.30
2022-09-14T01:26:41.627Z,16.30
2022-09-14T01:29:35.033Z,16.30
2022-09-14T01:32:29.135Z,16.30
2022-09-14T01:35:24.148Z,16.30
2022-09-14T01:38:18.866Z,16.30
2022-09-14T01:41:11.563Z,16.40
2022-09-14T01:44:04.682Z,16.40
2022-09-14T01:46:57.753Z,16.40
2022-09-14T01:49:52.539Z,16.40
2022-09-14T01:52:47.861Z,16.50
2022-09-14T01:55:42.486Z,16.50
2022-09-14T01:58:36.282Z,16.50
2022-09-14T02:01:29.361Z,16.40
2022-09-14T02:04:26.906Z,16.50
2022-09-14T02:07:16.678Z,16.50
2022-09-14T02:10:09.045Z,16.50
2022-09-14T02:12:59.170Z,16.40
2022-09-14T02:15:47.953Z,16.40
2022-09-14T02:18:36.718Z,16.40
2022-09-14T02:21:28.338Z,16.40
2022-09-14T02:24:17.326Z,16.40
2022-09-14T02:27:07.819Z,16.40
2022-09-14T02:29:56.830Z,16.40
2022-09-14T02:32:54.729Z,16.40
2022-09-14T02:35:50.078Z,16.40
2022-09-14T02:38:47.699Z,16.30
2022-09-14T02:41:43.272Z,16.30
2022-09-14T02:44:39.122Z,16.30
2022-09-14T02:47:32.965Z,16.30
2022-09-14T02:50:26.097Z,16.30
2022-09-14T02:53:20.443Z,16.20
2022-09-14T02:56:12.419Z,16.20
2022-09-14T02:59:01.089Z,16.30
2022-09-14T03:01:49.798Z,16.20
2022-09-14T03:04:38.417Z,16.20
2022-09-14T03:07:27.068Z,16.20
2022-09-14T03:10:15.868Z,16.20
2022-09-14T03:13:06.287Z,16.10
2022-09-14T03:15:55.071Z,16.10
2022-09-14T03:18:44.050Z,16.10
2022-09-14T03:21:33.164Z,16.10
2022-09-14T03:24:21.967Z,16.10
2022-09-14T03:27:10.649Z,16.10
2022-09-14T03:30:00.693Z,16.20
2022-09-14T03:32:50.111Z,16.10
2022-09-14T03:35:41.618Z,16.10
2022-09-14T03:38:30.354Z,16.10
2022-09-14T03:41:20.047Z,16.10
2022-09-14T03:44:08.884Z,16.10
2022-09-14T03:46:59.039Z,16.10
2022-09-14T03:49:47.765Z,16.10
2022-09-14T03:52:37.304Z,16.10
2022-09-14T03:55:25.941Z,16.00
2022-09-14T03:58:14.673Z,16.00
2022-09-14T04:01:07.093Z,16.00
2022-09-14T04:03:57.635Z,16.00
2022-09-14T04:06:46.266Z,16.00
2022-09-14T04:09:35.111Z,16.00
2022-09-14T04:12:24.036Z,16.00
2022-09-14T04:15:22.996Z,16.00
2022-09-14T04:18:12.186Z,16.00
2022-09-14T04:21:08.015Z,16.00
2022-09-14T04:24:15.655Z,16.00
2022-09-14T04:27:05.042Z,16.10
2022-09-14T04:29:57.239Z,16.10
2022-09-14T04:32:45.883Z,16.00
2022-09-14T04:35:34.490Z,16.00
2022-09-14T04:38:25.071Z,16.00
2022-09-14T04:41:28.716Z,16.00
2022-09-14T04:44:17.511Z,16.00
2022-09-14T04:47:06.472Z,16.00
2022-09-14T04:49:55.625Z,16.00
2022-09-14T04:52:44.284Z,16.00
2022-09-14T04:55:34.360Z,16.00
2022-09-14T04:58:23.118Z,16.00
2022-09-14T05:01:14.853Z,16.00
2022-09-14T05:04:04.374Z,16.00
2022-09-14T05:06:53.052Z,16.00
2022-09-14T05:09:42.034Z,16.00
2022-09-14T05:12:32.906Z,16.10
2022-09-14T05:15:23.254Z,16.00
2022-09-14T05:18:11.909Z,16.00
2022-09-14T05:21:08.139Z,16.00
2022-09-14T05:24:08.941Z,16.10
2022-09-14T05:27:00.960Z,16.10
2022-09-14T05:29:51.733Z,16.00
2022-09-14T05:32:45.966Z,16.10
2022-09-14T05:35:34.588Z,16.20
2022-09-14T05:38:23.248Z,16.10
2022-09-14T05:41:16.679Z,16.10
2022-09-14T05:44:07.085Z,16.10
2022-09-14T05:46:57.156Z,16.20
2022-09-14T05:49:45.942Z,16.20
2022-09-14T05:52:46.626Z,16.20
2022-09-14T05:55:35.231Z,16.20
2022-09-14T05:58:23.899Z,16.20
2022-09-14T06:01:25.426Z,16.20
2022-09-14T06:04:15.539Z,16.20
2022-09-14T06:07:18.053Z,16.20
2022-09-14T06:10:13.819Z,16.10
2022-09-14T06:13:02.496Z,16.20
2022-09-14T06:15:51.144Z,16.10
2022-09-14T06:18:41.135Z,16.20
2022-09-14T06:21:32.841Z,16.20
2022-09-14T06:24:21.534Z,16.20
2022-09-14T06:27:10.315Z,16.20
2022-09-14T06:29:58.943Z,16.20
2022-09-14T06:32:47.780Z,16.20
2022-09-14T06:35:36.396Z,16.20
2022-09-14T06:38:27.225Z,16.20
2022-09-14T06:41:19.128Z,16.20
2022-09-14T06:44:07.836Z,16.30
2022-09-14T06:46:56.705Z,16.30
2022-09-14T06:49:45.347Z,16.40
2022-09-14T06:52:34.112Z,16.40
2022-09-14T06:55:24.315Z,16.40
2022-09-14T06:58:13.155Z,16.50
2022-09-14T07:01:04.179Z,16.50
2022-09-14T07:03:53.033Z,16.50
2022-09-14T07:06:43.510Z,16.50
2022-09-14T07:09:32.640Z,16.60
2022-09-14T07:12:22.684Z,16.60
2022-09-14T07:15:11.813Z,16.60
2022-09-14T07:18:00.476Z,16.60
2022-09-14T07:20:49.140Z,16.70
2022-09-14T07:23:39.473Z,16.70
2022-09-14T07:26:30.678Z,16.70
2022-09-14T07:29:23.183Z,16.80
2022-09-14T07:32:11.854Z,16.80
2022-09-14T07:35:00.932Z,16.80
2022-09-14T07:37:50.022Z,16.80
2022-09-14T07:40:39.127Z,16.90
2022-09-14T07:43:29.005Z,16.90
2022-09-14T07:46:19.944Z,17.00
2022-09-14T07:49:09.551Z,17.10
2022-09-14T07:51:58.179Z,17.10
2022-09-14T07:54:47.032Z,17.10
2022-09-14T07:57:55.235Z,17.10
2022-09-14T08:00:44.712Z,17.20
2022-09-14T08:03:36.379Z,17.10
2022-09-14T08:06:27.333Z,17.10
2022-09-14T08:09:16.096Z,17.10
2022-09-14T08:12:05.961Z,17.10
2022-09-14T08:14:54.605Z,17.10
2022-09-14T08:17:43.244Z,17.10
2022-09-14T08:20:33.341Z,17.10
2022-09-14T08:23:22.046Z,17.10
2022-09-14T08:26:12.626Z,17.10
2022-09-14T08:29:01.325Z,17.20
2022-09-14T08:31:52.063Z,17.40
2022-09-14T08:34:40.927Z,17.50
2022-09-14T08:37:31.189Z,17.70
2022-09-14T08:40:20.119Z,17.80
2022-09-14T08:43:13.304Z,17.70
2022-09-14T08:48:56.336Z,17.60
2022-09-14T08:51:45.068Z,17.60
2022-09-14T08:54:55.679Z,17.60
2022-09-14T08:57:47.571Z,17.60
2022-09-14T09:01:05.800Z,17.60
2022-09-14T09:04:31.355Z,17.60
2022-09-14T09:07:39.686Z,17.70
2022-09-14T09:10:31.033Z,17.70
2022-09-14T09:13:40.262Z,17.70
2022-09-14T09:16:29.735Z,17.80
2022-09-14T09:19:26.723Z,17.80
2022-09-14T09:22:20.884Z,17.80
2022-09-14T09:25:17.400Z,17.80
2022-09-14T09:28:13.649Z,17.80
2022-09-14T09:31:10.152Z,17.80
2022-09-14T09:34:02.932Z,17.90
2022-09-14T09:36:51.869Z,17.90
2022-09-14T09:39:40.669Z,17.90
2022-09-14T09:42:29.433Z,17.90
2022-09-14T09:45:19.654Z,18.00
2022-09-14T09:48:11.316Z,18.10
2022-09-14T09:51:13.682Z,18.20
2022-09-14T09:54:09.731Z,18.20
2022-09-14T09:57:00.197Z,18.20
2022-09-14T09:59:49.515Z,18.20
2022-09-14T10:02:39.827Z,18.20
2022-09-14T10:05:31.691Z,18.10
2022-09-14T10:08:20.407Z,18.10
2022-09-14T10:11:39.089Z,18.10
2022-09-14T10:14:32.633Z,18.20
2022-09-14T10:17:23.284Z,18.40
2022-09-14T10:20:23.011Z,18.40
2022-09-14T10:23:27.524Z,18.40
2022-09-14T10:26:25.797Z,18.40
2022-09-14T10:29:35.525Z,18.50
2022-09-14T10:32:25.640Z,18.40
2022-09-14T10:35:17.677Z,18.40
2022-09-14T10:38:21.831Z,18.40
2022-09-14T10:41:25.541Z,18.40
2022-09-14T10:44:41.445Z,18.40
2022-09-14T10:48:09.354Z,18.40
2022-09-14T10:51:24.890Z,18.40
2022-09-14T10:54:33.494Z,18.50
2022-09-14T10:57:35.909Z,18.60
2022-09-14T11:00:24.856Z,18.70
2022-09-14T11:03:36.723Z,18.90
2022-09-14T11:06:35.946Z,19.00
2022-09-14T11:09:28.241Z,19.20
2022-09-14T11:12:25.501Z,19.20
2022-09-14T11:15:23.291Z,19.30
2022-09-14T11:18:22.555Z,19.40
2022-09-14T11:21:21.873Z,19.40
2022-09-14T11:24:19.774Z,19.50
2022-09-14T11:27:16.758Z,19.50
2022-09-14T11:30:10.526Z,19.50
2022-09-14T11:33:04.385Z,19.50
2022-09-14T11:35:58.180Z,19.40
2022-09-14T11:38:51.483Z,19.40
2022-09-14T11:41:50.783Z,19.40
2022-09-14T11:44:41.086Z,19.40
2022-09-14T11:47:36.486Z,19.40
2022-09-14T11:50:28.833Z,19.50
2022-09-14T11:53:18.156Z,19.50
2022-09-14T11:56:07.249Z,19.60
2022-09-14T11:59:03.537Z,19.70
2022-09-14T12:01:52.181Z,19.70
2022-09-14T12:05:19.100Z,19.50
2022-09-14T12:08:43.148Z,19.50
2022-09-14T12:11:37.528Z,19.40
2022-09-14T12:14:35.928Z,19.40
2022-09-14T12:17:39.250Z,19.40
2022-09-14T12:20:44.850Z,19.50
2022-09-14T12:23:51.851Z,19.40
2022-09-14T12:26:42.042Z,19.30
2022-09-14T12:29:34.718Z,19.30
2022-09-14T12:32:40.991Z,19.20
2022-09-14T12:35:48.443Z,19.20
2022-09-14T12:39:15.445Z,19.10
2022-09-14T12:42:27.962Z,19.20
2022-09-14T12:45:52.553Z,19.20
2022-09-14T12:49:07.001Z,19.20
2022-09-14T12:51:57.071Z,19.30
2022-09-14T12:54:55.753Z,19.50
2022-09-14T12:57:58.308Z,19.60
2022-09-14T13:00:58.602Z,19.60
2022-09-14T13:03:51.373Z,19.70
2022-09-14T13:06:43.978Z,19.70
2022-09-14T13:09:33.442Z,19.70
2022-09-14T13:12:31.412Z,19.50
2022-09-14T13:15:24.892Z,19.60
2022-09-14T13:18:30.264Z,19.60
2022-09-14T13:21:21.697Z,19.50
2022-09-14T13:24:32.683Z,19.50
2022-09-14T13:27:25.581Z,19.50
2022-09-14T13:30:31.645Z,19.50
2022-09-14T13:33:21.040Z,19.40
2022-09-14T13:36:10.734Z,19.40
2022-09-14T13:39:24.177Z,19.30
2022-09-14T13:42:13.014Z,19.20
2022-09-14T13:45:14.274Z,19.20
2022-09-14T13:48:06.585Z,19.20
2022-09-14T13:50:56.301Z,19.20
2022-09-14T13:53:52.820Z,19.10
2022-09-14T13:56:41.553Z,19.20
2022-09-14T13:59:30.182Z,19.10
2022-09-14T14:02:19.030Z,19.20
2022-09-14T14:05:25.371Z,19.20
2022-09-14T14:08:33.815Z,19.20
2022-09-14T14:11:29.424Z,19.20
2022-09-14T14:14:37.676Z,19.20
2022-09-14T14:17:39.677Z,19.30
2022-09-14T14:20:36.535Z,19.30
2022-09-14T14:23:25.436Z,19.30
2022-09-14T14:26:33.596Z,19.20
2022-09-14T14:29:22.497Z,19.20
2022-09-14T14:39:15.162Z,19.30
2022-09-14T14:42:04.751Z,19.20
2022-09-14T14:45:14.781Z,19.20
2022-09-14T14:48:03.926Z,19.20
2022-09-14T14:51:17.977Z,19.20
2022-09-14T14:54:07.225Z,19.20
2022-09-14T14:57:16.390Z,19.20
2022-09-14T15:00:06.608Z,19.20
2022-09-14T15:03:16.649Z,19.20
2022-09-14T15:06:34.142Z,19.20
2022-09-14T15:09:24.701Z,19.30
2022-09-14T15:15:55.863Z,19.40
2022-09-14T15:18:44.898Z,19.40
2022-09-14T15:25:16.737Z,19.50
2022-09-14T15:28:05.414Z,19.60
2022-09-14T15:31:15.312Z,19.60
2022-09-14T15:34:03.937Z,19.60
2022-09-14T15:37:17.072Z,19.60
2022-09-14T15:40:06.857Z,19.50
2022-09-14T15:42:56.173Z,19.50
2022-09-14T15:45:57.250Z,19.40
2022-09-14T15:48:45.885Z,19.30
2022-09-14T15:54:39.167Z,19.20
2022-09-14T15:57:27.861Z,19.20
2022-09-14T16:00:17.338Z,19.20
2022-09-14T16:03:17.970Z,19.20
2022-09-14T16:06:07.426Z,19.10
2022-09-14T16:09:15.872Z,19.10
2022-09-14T16:12:07.026Z,19.10
2022-09-14T16:18:01.559Z,19.00
2022-09-14T16:20:50.220Z,19.00
2022-09-14T16:23:41.777Z,18.90
2022-09-14T16:26:33.337Z,18.90
2022-09-14T16:29:24.375Z,18.80
2022-09-14T16:32:13.097Z,18.70
2022-09-14T16:35:22.461Z,18.50
2022-09-14T16:38:11.096Z,18.50
2022-09-14T16:41:04.661Z,18.40
2022-09-14T16:44:13.680Z,18.40
2022-09-14T16:47:23.191Z,18.40
2022-09-14T16:50:19.722Z,18.40
2022-09-14T16:53:23.443Z,18.30
2022-09-14T16:56:16.510Z,18.30
2022-09-14T16:59:24.988Z,18.30
2022-09-14T17:02:15.418Z,18.30
2022-09-14T17:05:22.492Z,18.30
2022-09-14T19:35:36.496Z,16.90
2022-09-14T19:38:26.176Z,16.90
2022-09-14T19:44:22.538Z,16.80
2022-09-14T19:47:13.188Z,16.80
2022-09-14T19:50:20.727Z,16.80
2022-09-14T20:03:44.551Z,16.80
2022-09-14T20:06:58.097Z,16.70
2022-09-14T20:09:47.242Z,16.80
2022-09-14T20:16:26.670Z,16.80
2022-09-14T20:19:44.446Z,16.80
2022-09-14T20:26:21.631Z,16.80
2022-09-14T20:29:15.697Z,16.80
2022-09-14T20:35:05.524Z,16.70
2022-09-14T20:41:42.926Z,16.80
2022-09-14T20:45:03.831Z,16.70
2022-09-14T20:48:24.783Z,16.80
2022-09-14T20:51:43.807Z,16.80
2022-09-14T20:55:01.912Z,16.80
2022-09-14T21:01:44.130Z,16.80
2022-09-14T21:05:04.320Z,16.80
2022-09-14T21:08:28.658Z,16.80
2022-09-14T21:11:42.658Z,16.80
2022-09-14T21:14:36.446Z,16.80
2022-09-14T21:17:43.439Z,16.70
